Johann Essberger — CQKG — position and weather

sailwx.info

Track history (hours):
 
Tides and Currents Weather Stations Pressure Air Temp Water Temp Dewpoint Dewpoint Depression Visibility Wind Speed Wind Dir Waves Ship Positions

Johann Essberger

Last reported at 2014-Dec-17 15:33 UTC. Time now 2014-Dec-17 19:56 UTC.
Position N 60°04' E 026°07'.

Length 100 m; draft 6.9 m.

Type: Ship (hazmat cat B). MMSI: 255804460.

Date/timePositionNaut miles runAvg speedWind from/ knotsBaromVisibWave heightAir tempDewpointWater temp
2014-Dec-17 15:33N 60°04' E 026°07'1211.9
2014-Dec-17 14:33N 60°13' E 026°24'1211.9
2014-Dec-17 13:33N 60°21' E 026°41'1212.3
2014-Dec-17 12:33N 60°22' E 027°05'10 0.9
2014-Dec-17 02:19N 60°31' E 027°10'0 0.1
2014-Dec-17 01:33N 60°31' E 027°10'3 2.9
2014-Dec-17 00:33N 60°28' E 027°08'10 9.7
2014-Dec-16 23:33N 60°22' E 026°54'1211.9
2014-Dec-16 22:33N 60°17' E 026°32'1211.7
2014-Dec-16 21:33N 60°08' E 026°18'4911.7
2014-Dec-16 17:22N 59°46' E 024°51'1012.6
2014-Dec-16 16:34N 59°44' E 024°31'2812.5
2014-Dec-16 14:17N 59°35' E 023°38'21311.4
2014-Dec-15 19:33N 58°37' E 016°59'1312.8
2014-Dec-15 18:33N 58°38' E 016°35'1110.6
2014-Dec-15 17:31N 58°36' E 016°14'1 1.0
2014-Dec-15 16:23N 58°37' E 016°12'0 0.0
2014-Dec-14 23:33N 58°37' E 016°12'2 1.7
2014-Dec-14 22:28N 58°37' E 016°15'1010.8
2014-Dec-14 21:33N 58°38' E 016°34'1312.4
2014-Dec-14 20:32N 58°37' E 016°58'188 8.5
2014-Dec-13 22:33N 55°37' E 015°20'1111.5
2014-Dec-13 21:33N 55°31' E 015°03'1211.5
2014-Dec-13 20:33N 55°25' E 014°45'1111.2
2014-Dec-13 19:33N 55°17' E 014°31'1111.1
2014-Dec-13 18:33N 55°09' E 014°19'1010.5
2014-Dec-13 17:33N 55°01' E 014°07'1211.9
2014-Dec-13 16:33N 54°57' E 013°47'5711.3
2014-Dec-13 11:32N 54°33' E 012°18'1111.4
2014-Dec-13 10:33N 54°24' E 012°07'4012.7
2014-Dec-13 07:23N 54°35' E 010°60'1512.8
2014-Dec-13 06:14N 54°33' E 010°35'812.2
2014-Dec-13 05:33N 54°30' E 010°21'1110.8
2014-Dec-13 04:33N 54°22' E 010°09'2 2.2
2014-Dec-13 03:33N 54°22' E 010°05'7 7.5
2014-Dec-13 02:33N 54°22' E 009°52'6 5.3
2014-Dec-13 01:31N 54°20' E 009°43'7 6.7
2014-Dec-13 00:33N 54°14' E 009°37'8 7.7
2014-Dec-12 23:32N 54°10' E 009°25'8 7.9
2014-Dec-12 22:33N 54°03' E 009°19'7 7.4
2014-Dec-12 21:33N 53°57' E 009°14'1 1.1
2014-Dec-12 20:33N 53°56' E 009°13'3 3.2
2014-Dec-12 19:33N 53°54' E 009°09'7 6.5
2014-Dec-12 18:33N 53°51' E 008°59'1111.0
2014-Dec-12 17:33N 53°54' E 008°41'1211.7
2014-Dec-12 16:33N 53°59' E 008°23'1312.5
2014-Dec-12 15:33N 53°58' E 008°01'1612.7
2014-Dec-12 14:16N 53°55' E 007°34'4812.9
2014-Dec-12 10:32N 53°43' E 006°15'1313.1
2014-Dec-12 09:33N 53°39' E 005°55'1313.3
2014-Dec-12 08:33N 53°35' E 005°33'1313.3
2014-Dec-12 07:33N 53°30' E 005°12'1413.6
2014-Dec-12 06:34N 53°26' E 004°51'1312.1
2014-Dec-12 05:30N 53°16' E 004°37'1111.4
2014-Dec-12 04:33N 53°06' E 004°28'1111.0
2014-Dec-12 03:33N 52°57' E 004°19'1010.4
2014-Dec-12 02:33N 52°48' E 004°11'1010.2
2014-Dec-12 01:33N 52°39' E 004°03'10 9.7
2014-Dec-12 00:33N 52°30' E 003°55'10 9.3
2014-Dec-11 23:32N 52°21' E 003°52'9 9.3
2014-Dec-11 22:33N 52°12' E 003°53'1010.1
2014-Dec-11 21:34N 52°02' E 003°58'1212.2
2014-Dec-11 20:33N 51°55' E 004°14'3 2.4
2014-Dec-11 19:29N 51°53' E 004°17'0 0.0
2014-Dec-11 00:33N 51°53' E 004°17'0 0.3
2014-Dec-10 23:33N 51°53' E 004°17'0 0.0
2014-Dec-10 12:34N 51°53' E 004°17'0 0.3
2014-Dec-10 11:34N 51°54' E 004°17'0 0.0
2014-Dec-09 13:33N 51°54' E 004°17'3 3.4
2014-Dec-09 12:33N 51°51' E 004°21'1010.1
2014-Dec-09 11:34N 51°48' E 004°36'7 6.8
2014-Dec-09 10:32N 51°42' E 004°34'0 0.0
2014-Dec-09 09:32N 51°42' E 004°34'0 0.0
2014-Dec-09 08:30N 51°42' E 004°34'0 0.0
2014-Dec-08 20:19N 51°42' E 004°34'3 4.1
2014-Dec-08 19:33N 51°44' E 004°38'8 8.0
2014-Dec-08 18:34N 51°50' E 004°30'10 9.9
2014-Dec-08 17:34N 51°54' E 004°16'1313.4
2014-Dec-08 16:33N 52°00' E 003°56'38 4.2
2014-Dec-08 07:33N 51°45' E 002°60'1210.0
2014-Dec-08 06:22N 51°41' E 003°18'1214.7
2014-Dec-08 05:33N 51°31' E 003°27'1413.8
2014-Dec-08 04:33N 51°22' E 003°45'  
Track history (hours):
 
Tides and Currents Weather Stations Pressure Air Temp Water Temp Dewpoint Dewpoint Depression Visibility Wind Speed Wind Dir Waves Ship Positions

Johann Essberger

Last reported at 2014-Dec-17 15:33 UTC. Time now 2014-Dec-17 19:56 UTC.
Position N 60°04' E 026°07'.

Length 100 m; draft 6.9 m.

Type: Ship (hazmat cat B). MMSI: 255804460.

Date/timePositionNaut miles runAvg speedWind from/ knotsBaromVisibWave heightAir tempDewpointWater temp
2014-Dec-17 15:33N 60°04' E 026°07'1211.9
2014-Dec-17 14:33N 60°13' E 026°24'1211.9
2014-Dec-17 13:33N 60°21' E 026°41'1212.3
2014-Dec-17 12:33N 60°22' E 027°05'10 0.9
2014-Dec-17 02:19N 60°31' E 027°10'0 0.1
2014-Dec-17 01:33N 60°31' E 027°10'3 2.9
2014-Dec-17 00:33N 60°28' E 027°08'10 9.7
2014-Dec-16 23:33N 60°22' E 026°54'1211.9
2014-Dec-16 22:33N 60°17' E 026°32'1211.7
2014-Dec-16 21:33N 60°08' E 026°18'4911.7
2014-Dec-16 17:22N 59°46' E 024°51'1012.6
2014-Dec-16 16:34N 59°44' E 024°31'2812.5
2014-Dec-16 14:17N 59°35' E 023°38'21311.4
2014-Dec-15 19:33N 58°37' E 016°59'1312.8
2014-Dec-15 18:33N 58°38' E 016°35'1110.6
2014-Dec-15 17:31N 58°36' E 016°14'1 1.0
2014-Dec-15 16:23N 58°37' E 016°12'0 0.0
2014-Dec-14 23:33N 58°37' E 016°12'2 1.7
2014-Dec-14 22:28N 58°37' E 016°15'1010.8
2014-Dec-14 21:33N 58°38' E 016°34'1312.4
2014-Dec-14 20:32N 58°37' E 016°58'188 8.5
2014-Dec-13 22:33N 55°37' E 015°20'1111.5
2014-Dec-13 21:33N 55°31' E 015°03'1211.5
2014-Dec-13 20:33N 55°25' E 014°45'1111.2
2014-Dec-13 19:33N 55°17' E 014°31'1111.1
2014-Dec-13 18:33N 55°09' E 014°19'1010.5
2014-Dec-13 17:33N 55°01' E 014°07'1211.9
2014-Dec-13 16:33N 54°57' E 013°47'5711.3
2014-Dec-13 11:32N 54°33' E 012°18'1111.4
2014-Dec-13 10:33N 54°24' E 012°07'4012.7
2014-Dec-13 07:23N 54°35' E 010°60'1512.8
2014-Dec-13 06:14N 54°33' E 010°35'812.2
2014-Dec-13 05:33N 54°30' E 010°21'1110.8
2014-Dec-13 04:33N 54°22' E 010°09'2 2.2
2014-Dec-13 03:33N 54°22' E 010°05'7 7.5
2014-Dec-13 02:33N 54°22' E 009°52'6 5.3
2014-Dec-13 01:31N 54°20' E 009°43'7 6.7
2014-Dec-13 00:33N 54°14' E 009°37'8 7.7
2014-Dec-12 23:32N 54°10' E 009°25'8 7.9
2014-Dec-12 22:33N 54°03' E 009°19'7 7.4
2014-Dec-12 21:33N 53°57' E 009°14'1 1.1
2014-Dec-12 20:33N 53°56' E 009°13'3 3.2
2014-Dec-12 19:33N 53°54' E 009°09'7 6.5
2014-Dec-12 18:33N 53°51' E 008°59'1111.0
2014-Dec-12 17:33N 53°54' E 008°41'1211.7
2014-Dec-12 16:33N 53°59' E 008°23'1312.5
2014-Dec-12 15:33N 53°58' E 008°01'1612.7
2014-Dec-12 14:16N 53°55' E 007°34'4812.9
2014-Dec-12 10:32N 53°43' E 006°15'1313.1
2014-Dec-12 09:33N 53°39' E 005°55'1313.3
2014-Dec-12 08:33N 53°35' E 005°33'1313.3
2014-Dec-12 07:33N 53°30' E 005°12'1413.6
2014-Dec-12 06:34N 53°26' E 004°51'1312.1
2014-Dec-12 05:30N 53°16' E 004°37'1111.4
2014-Dec-12 04:33N 53°06' E 004°28'1111.0
2014-Dec-12 03:33N 52°57' E 004°19'1010.4
2014-Dec-12 02:33N 52°48' E 004°11'1010.2
2014-Dec-12 01:33N 52°39' E 004°03'10 9.7
2014-Dec-12 00:33N 52°30' E 003°55'10 9.3
2014-Dec-11 23:32N 52°21' E 003°52'9 9.3
2014-Dec-11 22:33N 52°12' E 003°53'1010.1
2014-Dec-11 21:34N 52°02' E 003°58'1212.2
2014-Dec-11 20:33N 51°55' E 004°14'3 2.4
2014-Dec-11 19:29N 51°53' E 004°17'0 0.0
2014-Dec-11 00:33N 51°53' E 004°17'0 0.3
2014-Dec-10 23:33N 51°53' E 004°17'0 0.0
2014-Dec-10 12:34N 51°53' E 004°17'0 0.3
2014-Dec-10 11:34N 51°54' E 004°17'0 0.0
2014-Dec-09 13:33N 51°54' E 004°17'3 3.4
2014-Dec-09 12:33N 51°51' E 004°21'1010.1
2014-Dec-09 11:34N 51°48' E 004°36'7 6.8
2014-Dec-09 10:32N 51°42' E 004°34'0 0.0
2014-Dec-09 09:32N 51°42' E 004°34'0 0.0
2014-Dec-09 08:30N 51°42' E 004°34'0 0.0
2014-Dec-08 20:19N 51°42' E 004°34'3 4.1
2014-Dec-08 19:33N 51°44' E 004°38'8 8.0
2014-Dec-08 18:34N 51°50' E 004°30'10 9.9
2014-Dec-08 17:34N 51°54' E 004°16'1313.4
2014-Dec-08 16:33N 52°00' E 003°56'38 4.2
2014-Dec-08 07:33N 51°45' E 002°60'1210.0
2014-Dec-08 06:22N 51°41' E 003°18'1214.7
2014-Dec-08 05:33N 51°31' E 003°27'1413.8
2014-Dec-08 04:33N 51°22' E 003°45'  

Dump ship's entire track history